• Join FlightAware (Why Join?)
  • Login
  • US Flag 
06:16AM EDT


 

Airport Tracker/Info


-or-


 

Live Flight TrackerFlight Track Log ✈ JST1 ✈ 04-May-2013 ✈ YMML / MEL - PHNL

Flight Track Log - Related Links

Times and Time Zones

All times are in EDT time to prevent confusion due to time zone crossing. See the JST1 flight status page for this flight to view local times or setup timezone preferences in your user account.

Time Position Orientation Groundspeed Altitude Reporting Facility
EDT Latitude Longitude Course Direction KTS MPH feet Rate Location/Type
02:28AM -37.6750 144.8390 171° South 150 173  Level FlightAware
02:28AM -37.6940 144.8430 171° South 161 185 1,200 2,640 Climbing FlightAware
02:28AM -37.7136 144.8417 171° South 159 183 2,200 1,320 Climbing Aus ATC (RADAR)
02:29AM -37.7200 144.8290 171° South 181 208 2,200 540 Level FlightAware
02:29AM -37.7200 144.8150 270° West 186 214 2,500 1,800 Climbing FlightAware
02:29AM -37.7130 144.7840 286° West 186 214 3,400 1,200 Climbing FlightAware
02:30AM -37.7050 144.7500 287° West 210 242 3,700 720 Climbing FlightAware
02:30AM -37.6980 144.7180 285° West 235 270 4,100 1,020 Climbing FlightAware
02:31AM -37.6930 144.6980 288° West 256 295 4,400 1,380 Climbing FlightAware
02:31AM -37.6800 144.6810 314° West 272 313 4,800 2,160 Climbing FlightAware
02:31AM -37.6640 144.6730 338° Northwest 277 319 5,500 2,100 Climbing FlightAware
02:32AM -37.6300 144.6680 353° North 293 337 6,200 1,800 Climbing FlightAware
02:32AM -37.6100 144.6650 353° North 297 342 6,700 2,100 Climbing FlightAware
02:32AM -37.5670 144.6600 355° North 306 352 7,800 2,220 Climbing FlightAware
02:32AM -37.5620 144.6600 360° North 308 354 8,000 2,640 Climbing FlightAware
02:33AM -37.5330 144.6710 17° North 314 361 8,900 2,400 Climbing FlightAware
02:33AM -37.5170 144.6900 43° Northeast 316 364 9,400 1,560 Climbing FlightAware
02:34AM -37.4890 144.7460 58° Northeast 338 389 10,200 1,380 Climbing FlightAware
02:34AM -37.4469 144.8283 58° Northeast 366 421 11,200 960 Climbing Aus ATC (RADAR)
02:34AM -37.4440 144.8340 58° Northeast 385 443 11,000 1,680 Descending FlightAware
02:35AM -37.4129 144.8956 58° Northeast 391 450 12,200 1,920 Climbing Aus ATC (RADAR)
02:35AM -37.4050 144.9120 58° Northeast 399 459 12,300 2,040 Climbing FlightAware
02:36AM -37.3627 144.9945 58° Northeast 406 467 13,900 1,980 Climbing Aus ATC (RADAR)
02:36AM -37.3580 145.0040 58° Northeast 410 472 13,800 1,980 Descending FlightAware
02:36AM -37.3319 145.0553 58° Northeast 413 475 14,900 1,800 Climbing Aus ATC (RADAR)
02:36AM -37.3190 145.0810 58° Northeast 420 483 15,000 1,860 Climbing FlightAware
02:37AM -37.2951 145.1270 58° Northeast 421 484 16,000 1,800 Climbing Aus ATC (RADAR)
02:37AM -37.2770 145.1630 58° Northeast 430 495 16,200 1,320 Climbing FlightAware
02:38AM -37.2300 145.2550 57° Northeast 442 509 17,500 1,860 Climbing FlightAware
02:39AM -37.1799 145.3524 57° Northeast 449 517 18,800 1,500 Climbing Aus ATC (RADAR)
02:39AM -37.1820 145.3500 57° Northeast 453 521 18,500 1,860 Descending FlightAware
02:39AM -37.1398 145.4304 57° Northeast 457 526 19,900 1,620 Climbing Aus ATC (RADAR)
02:39AM -37.1370 145.4360 57° Northeast 461 531 19,600 1,380 Descending FlightAware
02:40AM -37.1052 145.4985 57° Northeast 464 534 20,600 1,560 Climbing Aus ATC (RADAR)
02:40AM -37.0840 145.5410 57° Northeast 472 543 20,800 1,140 Climbing FlightAware
02:41AM -37.0360 145.6340 57° Northeast 479 551 21,800 1,860 Climbing FlightAware
02:41AM -37.0099 145.6833 57° Northeast 479 551 22,600 1,560 Climbing Aus ATC (RADAR)
02:41AM -36.9810 145.7410 57° Northeast 483 556 23,000 1,680 Climbing FlightAware
02:42AM -36.9374 145.8240 57° Northeast 483 556 24,300 1,620 Climbing Aus ATC (RADAR)
02:42AM -36.9330 145.8340 57° Northeast 485 558 24,100 1,320 Descending FlightAware
02:43AM -36.8821 145.9301 57° Northeast 486 559 25,300 1,320 Climbing Aus ATC (RADAR)
02:43AM -36.8790 145.9370 57° Northeast 489 563 25,100 1,200 Descending FlightAware
02:43AM -36.8446 146.0010 57° Northeast 490 564 25,900 1,200 Climbing Aus ATC (RADAR)
02:43AM -36.8280 146.0360 57° Northeast 493 567 25,900 1,200 Level FlightAware
02:44AM -36.8014 146.0844 57° Northeast 491 565 26,600 1,200 Climbing Aus ATC (RADAR)
02:44AM -36.7770 146.1340 57° Northeast 496 571 26,700 660 Climbing FlightAware
02:45AM -36.7220 146.2400 57° Northeast 505 581 27,400 900 Climbing FlightAware
02:46AM -36.6730 146.3330 57° Northeast 510 587 28,000 1,140 Climbing FlightAware
02:46AM -36.6229 146.4251 57° Northeast 510 587 28,800 900 Climbing Aus ATC (RADAR)
02:46AM -36.6180 146.4370 57° Northeast 514 592 28,600 660 Descending FlightAware
02:47AM -36.5772 146.5126 57° Northeast 515 593 29,200 900 Climbing Aus ATC (RADAR)
02:47AM -36.5580 146.5510 57° Northeast 520 598 29,300 1,020 Climbing FlightAware
02:47AM -36.5304 146.5995 57° Northeast 520 598 29,800 720 Climbing Aus ATC (RADAR)
02:48AM -36.5070 146.6490 57° Northeast 525 604 29,800 420 Level FlightAware
02:48AM -36.4460 146.7640 57° Northeast 530 610 30,300 900 Climbing FlightAware
02:49AM -36.3961 146.8521 57° Northeast 529 609 31,000 900 Climbing Aus ATC (RADAR)
02:49AM -36.3930 146.8630 57° Northeast 530 610 30,900 900 Descending FlightAware
02:50AM -36.3421 146.9535 57° Northeast 529 609 31,600 900 Climbing Aus ATC (RADAR)
02:50AM -36.3400 146.9620 57° Northeast 532 612 31,500 960 Descending FlightAware
02:50AM -36.3082 147.0171 57° Northeast 528 608 32,000 660 Climbing Aus ATC (RADAR)
02:50AM -36.2760 147.0810 57° Northeast 533 613 32,000 300 Level FlightAware
02:51AM -36.2230 147.1810 57° Northeast 538 619 32,400 780 Climbing FlightAware
02:52AM -36.1573 147.2981 57° Northeast 536 617 33,100 660 Climbing Aus ATC (RADAR)
02:52AM -36.1600 147.2980 57° Northeast 539 620 32,900 1,020 Descending FlightAware
02:52AM -36.1159 147.3745 57° Northeast 533 613 33,600 900 Climbing Aus ATC (RADAR)
02:53AM -36.1050 147.3990 57° Northeast 537 618 33,500 660 Descending FlightAware
02:53AM -36.0675 147.4634 57° Northeast 532 612 34,000 660 Climbing Aus ATC (RADAR)
02:53AM -36.0460 147.5070 57° Northeast 535 616 34,000  Level FlightAware
02:54AM -36.0010 147.5900 56° Northeast 539 620 34,000 240 Level FlightAware
02:54AM -35.9706 147.6416 56° Northeast 535 616 34,200  Climbing Aus ATC (RADAR)
02:55AM -35.9290 147.7220 56° Northeast 535 616 34,000  Descending FlightAware
02:55AM -35.9221 147.7314 56° Northeast 535 616 34,200 960 Climbing Aus ATC (RADAR)
02:55AM -35.8803 147.8078 56° Northeast 535 616 34,500 240 Climbing Aus ATC (RADAR)
02:55AM -35.8680 147.8350 56° Northeast 542 624 34,400 60 Descending FlightAware
02:56AM -35.8110 147.9380 56° Northeast 543 625 34,600 480 Climbing FlightAware
02:57AM -35.7610 148.0260 56° Northeast 540 621 35,000 360 Climbing Aus ATC (RADAR)
02:57AM -35.7470 148.0540 56° Northeast 546 628 34,900 300 Descending FlightAware
02:57AM -35.7114 148.1166 56° Northeast 542 624 35,200 120 Climbing Aus ATC (RADAR)
02:57AM -35.6900 148.1580 56° Northeast 549 632 35,000  Descending FlightAware
02:58AM -35.6544 148.2193 56° Northeast 542 624 35,200  Climbing Aus ATC (RADAR)
02:58AM -35.6320 148.2610 56° Northeast 549 632 35,000  Descending FlightAware
02:58AM -35.6045 148.3093 56° Northeast 542 624 35,200  Climbing Aus ATC (RADAR)
02:59AM -35.5680 148.3770 56° Northeast 549 632 35,000 -240 Descending FlightAware
02:59AM -35.5190 148.4650 56° Northeast 548 631 35,000 300 Level FlightAware
02:59AM -35.5116 148.4766 56° Northeast 545 627 35,200 300 Climbing Aus ATC (RADAR)
03:00AM -35.4617 148.5663 56° Northeast 542 624 35,200 -300 Level Aus ATC (RADAR)
03:00AM -35.4510 148.5860 56° Northeast 544 626 35,000  Descending FlightAware
03:01AM -35.3897 148.6943 56° Northeast 543 625 35,200  Climbing Aus ATC (RADAR)
03:01AM -35.3940 148.6880 56° Northeast 545 627 35,000  Descending FlightAware
03:01AM -35.3398 148.7836 56° Northeast 540 621 35,200  Climbing Aus ATC (RADAR)
03:02AM -35.3440 148.7770 56° Northeast 542 624 35,000  Descending FlightAware
03:02AM -35.2893 148.8724 56° Northeast 540 621 35,200  Climbing Aus ATC (RADAR)
03:02AM -35.2720 148.9030 56° Northeast 544 626 35,000  Descending FlightAware
03:03AM -35.2317 148.9742 56° Northeast 541 623 35,200  Climbing Aus ATC (RADAR)
03:03AM -35.2080 149.0170 56° Northeast 543 625 35,000 -240 Descending FlightAware
03:04AM -35.1490 149.1220 56° Northeast 545 627 35,000  Level FlightAware
03:04AM -35.0940 149.2170 55° Northeast 545 627 35,000 120 Level FlightAware
03:05AM -35.0289 149.3306 55° Northeast 542 624 35,200  Climbing Aus ATC (RADAR)
03:05AM -35.0210 149.3450 55° Northeast 550 633 35,000  Descending FlightAware
03:06AM -34.9778 149.4195 55° Northeast 543 625 35,200  Climbing Aus ATC (RADAR)
03:06AM -34.9630 149.4460 55° Northeast 553 636 35,000  Descending FlightAware
03:06AM -34.9115 149.5351 55° Northeast 545 627 35,200  Climbing Aus ATC (RADAR)
03:07AM -34.9030 149.5500 55° Northeast 553 636 35,000  Descending FlightAware
03:07AM -34.8748 149.5987 55° Northeast 545 627 35,200  Climbing Aus ATC (RADAR)
03:07AM -34.8360 149.6680 55° Northeast 552 635 35,000 -180 Descending FlightAware
03:08AM -34.7760 149.7700 54° Northeast 554 638 35,000 120 Level FlightAware
03:09AM -34.7130 149.8785 54° Northeast 545 627 35,200  Climbing Aus ATC (RADAR)
03:09AM -34.7120 149.8810 54° Northeast 554 638 35,000  Descending FlightAware
03:09AM -34.6612 149.9673 54° Northeast 545 627 35,200  Climbing Aus ATC (RADAR)
03:09AM -34.6510 149.9850 54° Northeast 554 638 35,000  Descending FlightAware
03:10AM -34.6021 150.0686 54° Northeast 545 627 35,200  Climbing Aus ATC (RADAR)
03:10AM -34.5930 150.0840 54° Northeast 552 635 35,000  Descending FlightAware
03:10AM -34.5512 150.1557 54° Northeast 550 633 35,200  Climbing Aus ATC (RADAR)
03:11AM -34.5400 150.1750 54° Northeast 552 635 35,000 -300 Descending FlightAware
03:11AM -34.4900 150.2620 54° Northeast 553 636 35,000 300 Level FlightAware
03:11AM -34.4841 150.2703 54° Northeast 543 625 35,200 360 Climbing Aus ATC (RADAR)
03:12AM -34.4474 150.3521 54° Northeast 544 626 35,200  Level Aus ATC (RADAR)
03:12AM -34.4102 150.4511 65° Northeast 544 626 35,200  Level Aus ATC (RADAR)
03:13AM -34.3721 150.5490 65° Northeast 558 642 35,200  Level Aus ATC (RADAR)
03:13AM -34.3384 150.6346 65° Northeast 547 629 35,200  Level Aus ATC (RADAR)
03:14AM -34.2999 150.7323 64° Northeast 560 644 35,200  Level Aus ATC (RADAR)
03:14AM -34.2661 150.8179 65° Northeast 545 627 35,200  Level Aus ATC (RADAR)
03:15AM -34.2325 150.9027 64° Northeast 547 629 35,200  Level Aus ATC (RADAR)
03:16AM -34.1824 151.0296 65° Northeast 547 629 35,200 -240 Level Aus ATC (RADAR)
03:16AM -34.1750 151.0480 65° Northeast 559 643 35,000  Descending FlightAware
03:16AM -34.1375 151.1422 65° Northeast 547 629 35,200  Climbing Aus ATC (RADAR)
03:17AM -34.1220 151.1800 65° Northeast 560 644 35,000  Descending FlightAware
03:17AM -34.0809 151.2830 65° Northeast 546 628 35,200  Climbing Aus ATC (RADAR)
03:17AM -34.0780 151.2910 65° Northeast 561 646 35,000  Descending FlightAware
03:18AM -34.0365 151.3769 65° Northeast 543 625 35,200  Climbing Aus ATC (RADAR)
03:18AM -34.0240 151.3930 65° Northeast 552 635 35,000  Descending FlightAware
03:19AM -33.9523 151.4701 65° Northeast 540 621 35,200  Climbing Aus ATC (RADAR)
03:19AM -33.9580 151.4640 65° Northeast 548 631 35,000  Descending FlightAware
03:19AM -33.8877 151.5413 65° Northeast 547 629 35,200  Climbing Aus ATC (RADAR)
03:19AM -33.8790 151.5500 65° Northeast 549 632 35,000  Descending FlightAware
03:20AM -33.8298 151.6034 65° Northeast 542 624 35,200  Climbing Aus ATC (RADAR)
03:20AM -33.7710 151.6670 65° Northeast 549 632 35,000  Descending FlightAware
03:21AM -33.7064 151.7357 65° Northeast 542 624 35,200  Climbing Aus ATC (RADAR)
03:21AM -33.6970 151.7460 65° Northeast 550 633 35,000 -240 Descending FlightAware
03:22AM -33.6110 151.8390 65° Northeast 553 636 35,000 240 Level FlightAware
03:22AM -33.5924 151.8585 65° Northeast 545 627 35,200 360 Climbing Aus ATC (RADAR)
03:22AM -33.5457 151.9093 65° Northeast 557 641 35,200 -300 Level Aus ATC (RADAR)
03:22AM -33.5310 151.9240 65° Northeast 558 642 35,000  Descending FlightAware
03:23AM -33.4865 151.9717 65° Northeast 550 633 35,200  Climbing Aus ATC (RADAR)
03:23AM -33.4380 152.0240 65° Northeast 560 644 35,000  Descending FlightAware
03:23AM -33.3997 152.0646 65° Northeast 552 635 35,200  Climbing Aus ATC (RADAR)
03:24AM -33.3640 152.1030 65° Northeast 563 648 35,000  Descending FlightAware
03:24AM -33.2731 152.1996 65° Northeast 556 640 35,200  Climbing Aus ATC (RADAR)
03:24AM -33.2810 152.1910 65° Northeast 565 650 35,000  Descending FlightAware
03:25AM -33.1947 152.2826 65° Northeast 557 641 35,200  Climbing Aus ATC (RADAR)
03:25AM -33.1990 152.2790 65° Northeast 566 651 35,000  Descending FlightAware
03:26AM -33.1274 152.3542 65° Northeast 566 651 35,200  Climbing Aus ATC (RADAR)
03:26AM -33.1250 152.3570 65° Northeast 566 651 35,000 -240 Descending FlightAware
03:27AM -33.0370 152.4500 42° Northeast 569 655 35,000 120 Level FlightAware
03:27AM -32.9689 152.5212 42° Northeast 559 643 35,200  Climbing Aus ATC (RADAR)
03:27AM -32.9540 152.5370 42° Northeast 570 656 35,000  Descending FlightAware
03:28AM -32.8500 152.6461 42° Northeast 562 647 35,200  Climbing Aus ATC (RADAR)
03:28AM -32.8600 152.6350 42° Northeast 574 661 35,000 -300 Descending FlightAware
03:29AM -32.7780 152.7210 41° Northeast 577 664 35,000  Level FlightAware
03:29AM -32.7070 152.7960 41° Northeast 578 665 35,000 300 Level FlightAware
03:29AM -32.6898 152.8136 41° Northeast 580 667 35,200 300 Climbing Aus ATC (RADAR)
03:30AM -32.6296 152.8766 41° Northeast 566 651 35,200 -300 Level Aus ATC (RADAR)
03:30AM -32.6110 152.8960 41° Northeast 579 666 35,000  Descending FlightAware
03:31AM -32.5491 152.9604 41° Northeast 579 666 35,200  Climbing Aus ATC (RADAR)
03:31AM -32.5260 152.9850 41° Northeast 578 665 35,000 -240 Descending FlightAware
03:32AM -32.4360 153.0770 41° Northeast 578 665 35,000 120 Level FlightAware
03:32AM -32.3479 153.1685 41° Northeast 567 652 35,200  Climbing Aus ATC (RADAR)
03:32AM -32.3560 153.1600 41° Northeast 578 665 35,000  Descending FlightAware
03:33AM -32.2774 153.2410 41° Northeast 564 649 35,200  Climbing Aus ATC (RADAR)
03:33AM -32.2620 153.2570 41° Northeast 579 666 35,000 -120 Descending FlightAware
03:34AM -32.1768 153.3452 41° Northeast 579 666 35,100  Climbing Aus ATC (RADAR)
03:34AM -32.1820 153.3400 41° Northeast 579 666 35,000  Descending FlightAware
03:34AM -32.1363 153.3867 41° Northeast 565 650 35,100  Climbing Aus ATC (RADAR)
03:34AM -32.1100 153.4130 41° Northeast 578 665 35,000  Descending FlightAware
03:35AM -32.0654 153.4592 41° Northeast 567 652 35,100  Climbing Aus ATC (RADAR)
03:35AM -32.0270 153.4980 41° Northeast 576 663 35,000 -120 Descending FlightAware
03:36AM -31.9300 153.5970 41° Northeast 575 662 35,000  Level FlightAware
03:37AM -31.8200 153.7090 41° Northeast 572 658 35,000 60 Level FlightAware
03:37AM -31.7546 153.7757 41° Northeast 575 662 35,100  Climbing Aus ATC (RADAR)
03:37AM -31.7350 153.7960 41° Northeast 572 658 35,000  Descending FlightAware
03:38AM -31.6444 153.8880 41° Northeast 556 640 35,100  Climbing Aus ATC (RADAR)
03:38AM -31.6500 153.8810 41° Northeast 572 658 35,000 -180 Descending FlightAware
03:39AM -31.5780 153.9540 41° Northeast 573 659 35,000 120 Level FlightAware
03:39AM -31.5630 153.9686 41° Northeast 562 647 35,100 180 Climbing Aus ATC (RADAR)
03:39AM -31.5124 154.0195 41° Northeast 561 646 35,100 -180 Level Aus ATC (RADAR)
03:39AM -31.5060 154.0270 41° Northeast 574 661 35,000  Descending FlightAware
03:40AM -31.4425 154.0902 41° Northeast 558 642 35,100  Climbing Aus ATC (RADAR)
03:40AM -31.4370 154.0960 41° Northeast 576 663 35,000  Descending FlightAware
03:40AM -31.3615 154.1714 41° Northeast 560 644 35,100  Climbing Aus ATC (RADAR)
03:41AM -31.3410 154.1930 41° Northeast 575 662 35,000  Descending FlightAware
03:41AM -31.2501 154.2827 41° Northeast 560 644 35,100 60 Climbing Aus ATC (RADAR)
03:42AM -31.1494 154.3835 41° Northeast 558 642 35,100  Level Aus ATC (RADAR)
03:43AM -31.0989 154.4336 40° Northeast 558 642 35,100 -120 Level Aus ATC (RADAR)
03:43AM -31.0540 154.4780 40° Northeast 576 663 35,000 -120 Descending FlightAware
03:44AM -30.9730 154.5580 40° Northeast 576 663 35,000  Level FlightAware
03:44AM -30.9040 154.6260 40° Northeast 576 663 35,000  Level FlightAware
03:45AM -30.8340 154.6940 40° Northeast 576 663 35,000 60 Level FlightAware
03:46AM -30.7225 154.8051 40° Northeast 557 641 35,100  Climbing Aus ATC (RADAR)
03:46AM -30.7650 154.7620 40° Northeast 576 663 35,000  Descending FlightAware
03:46AM -30.6611 154.8639 40° Northeast 556 640 35,100  Climbing Aus ATC (RADAR)
03:46AM -30.6960 154.8290 40° Northeast 576 663 35,000 -120 Descending FlightAware
03:47AM -30.6260 154.8970 40° Northeast 576 663 35,000 120 Level FlightAware
03:47AM -30.5443 154.9834 40° Northeast 544 626 35,100 180 Climbing Aus ATC (RADAR)
03:48AM -30.4934 155.0321 40° Northeast 549 632 35,100 -180 Level Aus ATC (RADAR)
03:48AM -30.5400 154.9820 40° Northeast 576 663 35,000 -120 Descending FlightAware
03:49AM -30.4530 155.0660 40° Northeast 576 663 35,000 60 Level FlightAware
03:49AM -30.2921 155.2274 40° Northeast 564 649 35,100  Climbing Aus ATC (RADAR)
03:49AM -30.3830 155.1340 40° Northeast 576 663 35,000  Descending FlightAware
03:50AM -30.2220 155.2956 40° Northeast 566 651 35,100  Climbing Aus ATC (RADAR)
03:50AM -30.3140 155.2010 40° Northeast 576 663 35,000  Descending FlightAware
03:50AM -30.1311 155.3840 40° Northeast 571 657 35,100  Climbing Aus ATC (RADAR)
03:51AM -30.2620 155.2520 40° Northeast 576 663 35,000 -240 Descending FlightAware
03:51AM -30.2100 155.3020 40° Northeast 576 663 35,000 180 Level FlightAware
03:51AM -30.0615 155.4506 40° Northeast 562 647 35,100  Climbing Aus ATC (RADAR)
03:52AM -30.1400 155.3700 40° Northeast 576 663 35,000  Descending FlightAware
03:52AM -29.9509 155.5578 40° Northeast 566 651 35,100 120 Climbing Aus ATC (RADAR)
03:52AM -29.9109 155.5958 39° Northeast 564 649 35,100 -240 Level Aus ATC (RADAR)
03:52AM -29.9010 155.6050 39° Northeast 565 650 35,000  Descending FlightAware
03:53AM -29.8605 155.6447 39° Northeast 564 649 35,100  Climbing Aus ATC (RADAR)
03:53AM -29.8320 155.6710 39° Northeast 563 648 35,000  Descending FlightAware
03:53AM -29.7909 155.7113 39° Northeast 562 647 35,100  Climbing Aus ATC (RADAR)
03:54AM -29.7590 155.7410 39° Northeast 561 646 35,000  Descending FlightAware
03:54AM -29.7114 155.7873 39° Northeast 558 642 35,100 120 Climbing Aus ATC (RADAR)
03:54AM -29.6621 155.8346 40° Northeast 556 640 35,100 -240 Level Aus ATC (RADAR)
03:55AM -29.6640 155.8320 40° Northeast 560 644 35,000  Descending FlightAware
03:55AM -29.5919 155.9017 40° Northeast 562 647 35,100  Climbing Aus ATC (RADAR)
03:55AM -29.5910 155.9010 40° Northeast 560 644 35,000  Descending FlightAware
03:56AM -29.5113 155.9785 40° Northeast 565 650 35,100 60 Climbing Aus ATC (RADAR)
03:56AM -29.4705 156.0168 39° Northeast 567 652 35,100  Level Aus ATC (RADAR)
03:57AM -29.3996 156.0840 40° Northeast 567 652 35,100  Level Aus ATC (RADAR)
03:57AM -29.2994 156.1788 40° Northeast 564 649 35,100 -120 Level Aus ATC (RADAR)
03:58AM -29.2720 156.2050 39° Northeast 563 648 35,000  Descending FlightAware
03:58AM -29.2490 156.2264 39° Northeast 563 648 35,100 180 Climbing Aus ATC (RADAR)
03:58AM -29.1893 156.2829 39° Northeast 561 646 35,100 -180 Level Aus ATC (RADAR)
03:58AM -29.2030 156.2690 39° Northeast 563 648 35,000  Descending FlightAware
03:59AM -29.1084 156.3594 39° Northeast 562 647 35,100  Climbing Aus ATC (RADAR)
03:59AM -29.1340 156.3320 39° Northeast 563 648 35,000  Descending FlightAware
04:00AM -29.0376 156.4257 39° Northeast 564 649 35,100  Climbing Aus ATC (RADAR)
04:00AM -29.0650 156.3960 39° Northeast 563 648 35,000  Descending FlightAware
04:00AM -28.9676 156.4914 39° Northeast 560 644 35,100  Climbing Aus ATC (RADAR)
04:00AM -28.9380 156.5200 39° Northeast 35,000 -180 Descending FlightAware
04:01AM -28.8964 156.5576 39° Northeast 563 648 35,000 60 Level Aus ATC (RADAR)
04:01AM -28.8268 156.6231 39° Northeast 558 642 35,100  Climbing Aus ATC (RADAR)
04:01AM -28.8330 156.6180 39° Northeast 560 644 35,000 -120 Descending FlightAware
04:03AM -28.6490 156.7890 39° Northeast 550 633 35,000  Level FlightAware
04:03AM -28.6064 156.8279 39° Northeast 556 640 35,000  Level Aus ATC (RADAR)
04:04AM -28.5640 156.8690 39° Northeast 550 633 35,000  Level FlightAware
04:04AM -28.5471 156.8830 39° Northeast 552 635 35,000  Level Aus ATC (RADAR)
04:04AM -28.4654 156.9568 39° Northeast 559 643 35,000  Level Aus ATC (RADAR)
04:04AM -28.4660 156.9590 39° Northeast 557 641 35,000  Level FlightAware
04:06AM -28.3130 157.1000 39° Northeast 557 641 35,000  Level FlightAware
04:06AM -28.2185 157.1875 39° Northeast 543 625 35,000  Level Aus ATC (RADAR)
04:06AM -28.2620 157.1470 39° Northeast 557 641 35,000  Level FlightAware
04:07AM -28.1187 157.2791 39° Northeast 551 634 35,000  Level Aus ATC (RADAR)
04:07AM -28.1770 157.2250 39° Northeast 557 641 35,000  Level FlightAware
04:08AM -28.1090 157.2880 39° Northeast 557 641 35,000  Level FlightAware
04:09AM -28.0400 157.3500 38° Northeast 557 641 35,000  Level FlightAware
04:09AM -27.9890 157.3970 39° Northeast 557 641 35,000  Level FlightAware
04:10AM -27.9040 157.4750 39° Northeast 557 641 35,000  Level FlightAware
04:11AM -27.8360 157.5370 39° Northeast 557 641 35,000  Level FlightAware
04:11AM -27.7680 157.6000 39° Northeast 557 641 35,000  Level FlightAware
04:12AM -27.7170 157.6470 39° Northeast 557 641 35,000  Level FlightAware
04:13AM -27.6320 157.7240 39° Northeast 557 641 35,000  Level FlightAware
04:13AM -27.5640 157.7870 39° Northeast 557 641 35,000  Level FlightAware
04:14AM -27.2951 158.0277 46° Northeast 35,000  Level Aus ATC (Calculated)
04:15AM -27.1709 158.1394 46° Northeast 35,000  Level Aus ATC (Calculated)
04:16AM -27.1823 158.1579 46° Northeast  Level Estimated
04:17AM -27.0611 158.2659 46° Northeast  Level Estimated
04:17AM -26.9712 158.3183 46° Northeast 35,000  Level Aus ATC (Calculated)
04:18AM -26.9683 158.3725 46° Northeast  Level Estimated
04:18AM -26.8975 158.3841 46° Northeast 35,000  Level Aus ATC (Calculated)
04:18AM -26.8975 158.3841 46° Northeast 35,000  Level Aus ATC (Calculated)
04:19AM -26.8261 158.4478 46° Northeast 35,000  Level Aus ATC (Calculated)
04:21AM -26.6975 158.5948 46° Northeast  Level Estimated
04:22AM -26.6045 158.7009 46° Northeast  Level Estimated
04:23AM -26.5114 158.8068 46° Northeast  Level Estimated
04:24AM -26.4182 158.9125 45° Northeast  Level Estimated
04:25AM -26.3249 159.0181 45° Northeast  Level Estimated
04:25AM -26.1326 159.0604 45° Northeast 35,000  Level Aus ATC (Calculated)
04:27AM -25.9817 159.2306 45° Northeast  Level Estimated
04:28AM -25.8883 159.3356 45° Northeast  Level Estimated
04:29AM -25.7948 159.4405 45° Northeast  Level Estimated
04:30AM -25.7013 159.5452 45° Northeast  Level Estimated
04:31AM -25.6076 159.6497 45° Northeast  Level Estimated
04:32AM -25.5139 159.7540 45° Northeast  Level Estimated
04:33AM -25.4201 159.8582 45° Northeast  Level Estimated
04:34AM -25.3263 159.9623 45° Northeast  Level Estimated
04:35AM -25.2324 160.0662 45° Northeast  Level Estimated
04:36AM -25.1384 160.1699 45° Northeast  Level Estimated
04:37AM -25.0443 160.2734 45° Northeast  Level Estimated
04:37AM -24.6458 160.3426 45° Northeast 35,000  Level Aus ATC (Calculated)
04:38AM -24.9501 160.3768 45° Northeast  Level Estimated
04:39AM -24.5126 160.4888 45° Northeast  Level Estimated
04:40AM -24.4185 160.5918 45° Northeast  Level Estimated
04:41AM -24.3244 160.6947 45° Northeast  Level Estimated
04:42AM -24.2302 160.7974 45° Northeast  Level Estimated
04:43AM -24.1359 160.9000 45° Northeast  Level Estimated
04:44AM -24.0415 161.0024 45° Northeast  Level Estimated
04:45AM -23.9471 161.1047 45° Northeast  Level Estimated
04:46AM -23.8526 161.2068 45° Northeast  Level Estimated
04:47AM -23.7581 161.3088 45° Northeast  Level Estimated
04:48AM -23.6634 161.4106 45° Northeast  Level Estimated
04:48AM -23.3137 161.4467 45° Northeast 35,000  Level Aus ATC (Calculated)
04:49AM -23.1933 161.5450 45° Northeast 35,000  Level Aus ATC (Calculated)
04:50AM -23.1924 161.5771 45° Northeast  Level Estimated
04:51AM -23.0862 161.6600 45° Northeast  Level Estimated
04:52AM -22.9916 161.7614 45° Northeast  Level Estimated
04:53AM -22.8969 161.8625 45° Northeast  Level Estimated
04:53AM -22.7979 161.8666 45° Northeast 35,000  Level Aus ATC (Calculated)
04:55AM -22.6448 162.0298 45° Northeast  Level Estimated
04:56AM -22.5500 162.1306 44° Northeast  Level Estimated
04:57AM -22.4552 162.2313 44° Northeast  Level Estimated
04:58AM -22.3603 162.3318 44° Northeast  Level Estimated
04:59AM -22.2653 162.4322 44° Northeast  Level Estimated
04:59AM -22.0016 162.5069 44° Northeast 35,000  Level Aus ATC (Calculated)
05:00AM -22.1702 162.5325 44° Northeast  Level Estimated
05:01AM -21.8924 162.6221 44° Northeast  Level Estimated
05:02AM -21.7974 162.7221 44° Northeast  Level Estimated
05:03AM -21.7023 162.8220 44° Northeast  Level Estimated
05:04AM -21.6072 162.9217 44° Northeast  Level Estimated
05:05AM -21.5120 163.0213 44° Northeast  Level Estimated
05:06AM -21.4168 163.1208 44° Northeast  Level Estimated
05:07AM -21.3215 163.2202 44° Northeast  Level Estimated
05:08AM -21.2261 163.3194 44° Northeast  Level Estimated
05:09AM -21.1307 163.4185 44° Northeast  Level Estimated
05:10AM -21.0352 163.5175 44° Northeast  Level Estimated
05:11AM -20.9396 163.6163 44° Northeast  Level Estimated
05:12AM -20.8440 163.7150 44° Northeast  Level Estimated
05:13AM -20.7484 163.8136 44° Northeast  Level Estimated
05:14AM -20.6527 163.9121 44° Northeast  Level Estimated
05:15AM -20.5569 164.0104 44° Northeast  Level Estimated
05:16AM -20.4611 164.1086 44° Northeast  Level Estimated
05:17AM -20.3652 164.2068 44° Northeast  Level Estimated
05:18AM -20.2693 164.3047 44° Northeast  Level Estimated
05:19AM -20.1733 164.4026 44° Northeast  Level Estimated
05:20AM -20.0772 164.5003 44° Northeast  Level Estimated
05:21AM -19.9811 164.5979 44° Northeast  Level Estimated
05:22AM -19.8850 164.6954 44° Northeast  Level Estimated
05:23AM -19.7888 164.7928 44° Northeast  Level Estimated
05:24AM -19.6926 164.8901 44° Northeast  Level Estimated
05:25AM -19.5962 164.9872 44° Northeast  Level Estimated
05:26AM -19.4999 165.0842 44° Northeast  Level Estimated
05:27AM -19.4035 165.1811 43° Northeast  Level Estimated
05:28AM -19.3070 165.2779 43° Northeast  Level Estimated
05:29AM -19.2105 165.3746 43° Northeast  Level Estimated
05:30AM -19.1139 165.4712 43° Northeast  Level Estimated
05:31AM -19.0173 165.5677 43° Northeast  Level Estimated
05:32AM -18.9207 165.6640 43° Northeast  Level Estimated
05:33AM -18.8240 165.7602 43° Northeast  Level Estimated
05:34AM -18.7272 165.8563 43° Northeast  Level Estimated
05:35AM -18.6304 165.9523 43° Northeast  Level Estimated
05:36AM -18.5335 166.0482 43° Northeast  Level Estimated
05:37AM -18.4366 166.1440 43° Northeast  Level Estimated
05:38AM -18.3397 166.2397 43° Northeast  Level Estimated
05:39AM -18.2427 166.3353 43° Northeast  Level Estimated
05:40AM -18.1456 166.4308 43° Northeast  Level Estimated
05:41AM -18.0485 166.5262 43° Northeast  Level Estimated
05:42AM -17.9514 166.6214 43° Northeast  Level Estimated
05:43AM -17.8542 166.7166 43° Northeast  Level Estimated
05:44AM -17.7569 166.8116 43° Northeast  Level Estimated
05:45AM -17.6597 166.9066 43° Northeast  Level Estimated
05:46AM -17.5623 167.0014 43° Northeast  Level Estimated
05:47AM -17.4650 167.0962 43° Northeast  Level Estimated
05:48AM -17.3675 167.1908 43° Northeast  Level Estimated
05:49AM -17.2701 167.2853 43° Northeast  Level Estimated
05:50AM -17.1726 167.3798 43° Northeast  Level Estimated
05:51AM -17.0750 167.4741 43° Northeast  Level Estimated
05:52AM -16.9774 167.5684 43° Northeast  Level Estimated
05:53AM -16.8798 167.6625 43° Northeast  Level Estimated
05:54AM -16.7821 167.7566 43° Northeast  Level Estimated
05:55AM -16.6844 167.8505 43° Northeast  Level Estimated
05:56AM -16.5866 167.9444 43° Northeast  Level Estimated
05:57AM -16.4888 168.0381 43° Northeast  Level Estimated
05:58AM -16.3910 168.1318 43° Northeast  Level Estimated
05:59AM -16.2931 168.2254 43° Northeast  Level Estimated
06:00AM -16.1951 168.3188 43° Northeast  Level Estimated
06:01AM -16.0972 168.4122 42° Northeast  Level Estimated
06:02AM -15.9992 168.5055 42° Northeast  Level Estimated
06:03AM -15.9011 168.5987 42° Northeast  Level Estimated
06:04AM -15.8030 168.6918 42° Northeast  Level Estimated
06:05AM -15.7049 168.7849 42° Northeast  Level Estimated
06:06AM -15.6067 168.8778 42° Northeast  Level Estimated
06:07AM -15.5085 168.9706 42° Northeast  Level Estimated
06:08AM -15.4103 169.0634 42° Northeast  Level Estimated
06:09AM -15.3120 169.1561 42° Northeast  Level Estimated
06:10AM -15.2136 169.2486 42° Northeast  Level Estimated
06:11AM -15.1153 169.3411 42° Northeast  Level Estimated
06:12AM -15.0169 169.4335 42° Northeast  Level Estimated
06:13AM -14.9184 169.5258 42° Northeast  Level Estimated
06:14AM -14.8200 169.6181 42° Northeast  Level Estimated
06:15AM -14.7214 169.7102 42° Northeast  Level Estimated
06:16AM -14.6229 169.8023 42° Northeast  Level Estimated
06:17AM -14.5243 169.8943 42° Northeast  Level Estimated
06:18AM -14.4257 169.9862 42° Northeast  Level Estimated
06:19AM -14.3270 170.0780 42° Northeast  Level Estimated
06:20AM -14.2283 170.1698 42° Northeast  Level Estimated
06:21AM -14.1296 170.2614 42° Northeast  Level Estimated
06:22AM -14.0309 170.3530 42° Northeast  Level Estimated
06:23AM -13.9321 170.4445 42° Northeast  Level Estimated
06:24AM -13.8332 170.5359 42° Northeast  Level Estimated
06:25AM -13.7344 170.6273 42° Northeast  Level Estimated
06:26AM -13.6355 170.7186 42° Northeast  Level Estimated
06:27AM -13.5365 170.8098 42° Northeast  Level Estimated
06:28AM -13.4376 170.9009 42° Northeast  Level Estimated
06:29AM -13.3386 170.9919 42° Northeast  Level Estimated
06:30AM -13.2395 171.0829 42° Northeast  Level Estimated
06:31AM -13.1405 171.1738 42° Northeast  Level Estimated
06:32AM -13.0414 171.2646 42° Northeast  Level Estimated
06:33AM -12.9423 171.3554 42° Northeast  Level Estimated
06:34AM -12.8431 171.4460 42° Northeast  Level Estimated
06:35AM -12.7439 171.5367 42° Northeast  Level Estimated
06:36AM -12.6447 171.6272 42° Northeast  Level Estimated
06:37AM -12.5455 171.7177 42° Northeast  Level Estimated
06:38AM -12.4462 171.8081 42° Northeast  Level Estimated
06:39AM -12.3469 171.8984 42° Northeast  Level Estimated
06:40AM -12.2475 171.9887 42° Northeast  Level Estimated
06:41AM -12.1482 172.0789 42° Northeast  Level Estimated
06:42AM -12.0488 172.1690 42° Northeast  Level Estimated
06:43AM -11.9493 172.2590 42° Northeast  Level Estimated
06:44AM -11.8499 172.3490 42° Northeast  Level Estimated
06:45AM -11.7504 172.4389 42° Northeast  Level Estimated
06:46AM -11.6509 172.5288 41° Northeast  Level Estimated
06:47AM -11.5513 172.6186 41° Northeast  Level Estimated
06:48AM -11.4518 172.7083 41° Northeast  Level Estimated
06:49AM -11.3522 172.7980 41° Northeast  Level Estimated
06:50AM -11.2526 172.8876 41° Northeast  Level Estimated
06:51AM -11.1529 172.9771 41° Northeast  Level Estimated
06:52AM -11.0533 173.0666 41° Northeast  Level Estimated
06:53AM -10.9536 173.1560 41° Northeast  Level Estimated
06:54AM -10.8538 173.2454 41° Northeast  Level Estimated
06:55AM -10.7541 173.3347 41° Northeast  Level Estimated
06:56AM -10.6543 173.4239 41° Northeast  Level Estimated
06:57AM -10.5545 173.5131 41° Northeast  Level Estimated
06:58AM -10.4547 173.6022 41° Northeast  Level Estimated
06:59AM -10.3548 173.6913 41° Northeast  Level Estimated
07:00AM -10.2549 173.7803 41° Northeast  Level Estimated
07:01AM -10.1550 173.8693 41° Northeast  Level Estimated
07:02AM -10.0551 173.9582 41° Northeast  Level Estimated
07:03AM -9.9552 174.0470 41° Northeast  Level Estimated
07:04AM -9.8552 174.1358 41° Northeast  Level Estimated
07:05AM -9.7552 174.2246 41° Northeast  Level Estimated
07:06AM -9.6552 174.3132 41° Northeast  Level Estimated
07:07AM -9.5551 174.4019 41° Northeast  Level Estimated
07:08AM -9.4551 174.4905 41° Northeast  Level Estimated
07:09AM -9.3550 174.5790 41° Northeast  Level Estimated
07:10AM -9.2549 174.6675 41° Northeast  Level Estimated
07:11AM -9.1547 174.7559 41° Northeast  Level Estimated
07:12AM -9.0546 174.8443 41° Northeast  Level Estimated
07:13AM -8.9544 174.9326 41° Northeast  Level Estimated
07:14AM -8.8542 175.0209 41° Northeast  Level Estimated
07:15AM -8.7540 175.1091 41° Northeast  Level Estimated
07:16AM -8.6538 175.1973 41° Northeast  Level Estimated
07:17AM -8.5535 175.2854 41° Northeast  Level Estimated
07:18AM -8.4533 175.3735 41° Northeast  Level Estimated
07:19AM -8.3530 175.4616 41° Northeast  Level Estimated
07:20AM -8.2527 175.5496 41° Northeast  Level Estimated
07:21AM -8.1523 175.6375 41° Northeast  Level Estimated
07:22AM -8.0520 175.7254 41° Northeast  Level Estimated
07:23AM -7.9516 175.8133 41° Northeast  Level Estimated
07:24AM -7.8512 175.9011 41° Northeast  Level Estimated
07:25AM -7.7508 175.9889 41° Northeast  Level Estimated
07:26AM -7.6504 176.0766 41° Northeast  Level Estimated
07:27AM -7.5500 176.1643 41° Northeast  Level Estimated
07:28AM -7.4495 176.2520 41° Northeast  Level Estimated
07:29AM -7.3490 176.3396 41° Northeast  Level Estimated
07:30AM -7.2485 176.4272 41° Northeast  Level Estimated
07:31AM -7.1480 176.5147 41° Northeast  Level Estimated
07:32AM -7.0475 176.6022 41° Northeast  Level Estimated
07:33AM -6.9469 176.6897 41° Northeast  Level Estimated
07:34AM -6.8464 176.7771 41° Northeast  Level Estimated
07:35AM -6.7458 176.8645 41° Northeast  Level Estimated
07:36AM -6.6452 176.9519 41° Northeast  Level Estimated
07:37AM -6.5446 177.0392 41° Northeast  Level Estimated
07:38AM -6.4440 177.1265 41° Northeast  Level Estimated
07:39AM -6.3433 177.2137 41° Northeast  Level Estimated
07:40AM -6.2427 177.3009 41° Northeast  Level Estimated
07:41AM -6.1420 177.3881 41° Northeast  Level Estimated
07:42AM -6.0414 177.4752 41° Northeast  Level Estimated
07:43AM -5.9407 177.5623 41° Northeast  Level Estimated
07:44AM -5.8400 177.6494 41° Northeast  Level Estimated
07:45AM -5.7392 177.7365 41° Northeast  Level Estimated
07:46AM -5.6385 177.8235 41° Northeast  Level Estimated
07:47AM -5.5378 177.9105 41° Northeast  Level Estimated
07:48AM -5.4370 177.9975 41° Northeast  Level Estimated
07:49AM -5.3362 178.0844 41° Northeast  Level Estimated
07:50AM -5.2354 178.1713 41° Northeast  Level Estimated
07:51AM -5.1347 178.2581 41° Northeast  Level Estimated
07:52AM -5.0338 178.3450 41° Northeast  Level Estimated
07:53AM -4.9330 178.4318 41° Northeast  Level Estimated
07:54AM -4.8322 178.5186 41° Northeast  Level Estimated
07:55AM -4.7313 178.6054 41° Northeast  Level Estimated
07:56AM -4.6305 178.6921 41° Northeast  Level Estimated
07:57AM -4.5296 178.7788 41° Northeast  Level Estimated
07:58AM -4.4288 178.8655 41° Northeast  Level Estimated
07:59AM -4.3279 178.9522 41° Northeast  Level Estimated
08:00AM -4.2270 179.0388 41° Northeast  Level Estimated
08:01AM -4.1261 179.1255 41° Northeast  Level Estimated
08:02AM -4.0252 179.2121 41° Northeast  Level Estimated
08:03AM -3.9243 179.2986 41° Northeast  Level Estimated
08:04AM -3.8233 179.3852 41° Northeast  Level Estimated
08:05AM -3.7224 179.4718 41° Northeast  Level Estimated
08:06AM -3.6214 179.5583 41° Northeast  Level Estimated
08:07AM -3.5205 179.6448 41° Northeast  Level Estimated
08:08AM -3.4195 179.7312 41° Northeast  Level Estimated
08:09AM -3.3186 179.8177 41° Northeast  Level Estimated
08:10AM -3.2176 179.9041 41° Northeast  Level Estimated
08:11AM -3.1166 179.9906 41° Northeast  Level Estimated
08:12AM -3.0156 -179.9230 41° Northeast  Level Estimated
08:13AM -2.9146 -179.8366 41° Northeast  Level Estimated
08:14AM -2.8136 -179.7502 41° Northeast  Level Estimated
08:15AM -2.7126 -179.6639 40° Northeast  Level Estimated
08:16AM -2.6116 -179.5775 40° Northeast  Level Estimated
08:17AM -2.5106 -179.4912 40° Northeast  Level Estimated
08:18AM -2.4095 -179.4049 40° Northeast  Level Estimated
08:19AM -2.3085 -179.3186 40° Northeast  Level Estimated
08:20AM -2.2074 -179.2323 40° Northeast  Level Estimated
08:21AM -2.1064 -179.1460 40° Northeast  Level Estimated
08:22AM -2.0053 -179.0597 40° Northeast  Level Estimated
08:23AM -1.9043 -178.9734 40° Northeast  Level Estimated
08:24AM -1.8032 -178.8872 40° Northeast  Level Estimated
08:25AM -1.7022 -178.8009 40° Northeast  Level Estimated
08:26AM -1.6011 -178.7147 40° Northeast  Level Estimated
08:27AM -1.5000 -178.6285 40° Northeast  Level Estimated
08:28AM -1.3989 -178.5423 40° Northeast  Level Estimated
08:29AM -1.2979 -178.4561 40° Northeast  Level Estimated
08:30AM -1.1968 -178.3698 40° Northeast  Level Estimated
08:31AM -1.0957 -178.2836 40° Northeast  Level Estimated
08:32AM -0.9946 -178.1975 40° Northeast  Level Estimated
08:33AM -0.8935 -178.1113 40° Northeast  Level Estimated
08:34AM -0.7924 -178.0251 40° Northeast  Level Estimated
08:35AM -0.6913 -177.9389 40° Northeast  Level Estimated
08:36AM -0.5903 -177.8527 40° Northeast  Level Estimated
08:37AM -0.4892 -177.7666 40° Northeast  Level Estimated
08:38AM -0.3881 -177.6804 40° Northeast  Level Estimated
08:39AM -0.2870 -177.5942 40° Northeast  Level Estimated
08:40AM -0.1859 -177.5081 40° Northeast  Level Estimated
08:41AM -0.0848 -177.4219 40° Northeast  Level Estimated
08:42AM 0.0163 -177.3357 40° Northeast  Level Estimated
08:43AM 0.1174 -177.2496 40° Northeast  Level Estimated
08:44AM 0.2185 -177.1634 40° Northeast  Level Estimated
08:45AM 0.3196 -177.0773 40° Northeast  Level Estimated
08:46AM 0.4207 -176.9911 40° Northeast  Level Estimated
08:47AM 0.5218 -176.9049 40° Northeast  Level Estimated
08:48AM 0.6229 -176.8187 40° Northeast  Level Estimated
08:49AM 0.7240 -176.7326 40° Northeast  Level Estimated
08:50AM 0.8251 -176.6464 40° Northeast  Level Estimated
08:51AM 0.9262 -176.5602 40° Northeast  Level Estimated
08:52AM 1.0273 -176.4740 40° Northeast  Level Estimated
08:53AM 1.1284 -176.3878 40° Northeast  Level Estimated
08:54AM 1.2294 -176.3016 40° Northeast  Level Estimated
08:55AM 1.3305 -176.2154 40° Northeast  Level Estimated
08:56AM 1.4316 -176.1292 40° Northeast  Level Estimated
08:57AM 1.5327 -176.0430 40° Northeast  Level Estimated
08:58AM 1.6337 -175.9568 40° Northeast  Level Estimated
08:59AM 1.7348 -175.8705 40° Northeast  Level Estimated
09:00AM 1.8359 -175.7843 40° Northeast  Level Estimated
09:01AM 1.9369 -175.6980 40° Northeast  Level Estimated
09:02AM 2.0380 -175.6117 40° Northeast  Level Estimated
09:03AM 2.1390 -175.5255 40° Northeast  Level Estimated
09:04AM 2.2401 -175.4392 40° Northeast  Level Estimated
09:05AM 2.3411 -175.3529 40° Northeast  Level Estimated
09:06AM 2.4421 -175.2666 40° Northeast  Level Estimated
09:07AM 2.5432 -175.1802 40° Northeast  Level Estimated
09:08AM 2.6442 -175.0939 40° Northeast  Level Estimated
09:09AM 2.7452 -175.0075 40° Northeast  Level Estimated
09:10AM 2.8462 -174.9212 40° Northeast  Level Estimated
09:11AM 2.9472 -174.8348 41° Northeast  Level Estimated
09:12AM 3.0482 -174.7484 41° Northeast  Level Estimated
09:13AM 3.1492 -174.6620 41° Northeast  Level Estimated
09:14AM 3.2502 -174.5755 41° Northeast  Level Estimated
09:15AM 3.3512 -174.4891 41° Northeast  Level Estimated
09:16AM 3.4521 -174.4026 41° Northeast  Level Estimated
09:17AM 3.5531 -174.3161 41° Northeast  Level Estimated
09:18AM 3.6541 -174.2296 41° Northeast  Level Estimated
09:19AM 3.7550 -174.1431 41° Northeast  Level Estimated
09:20AM 3.8559 -174.0565 41° Northeast  Level Estimated
09:21AM 3.9569 -173.9700 41° Northeast  Level Estimated
09:22AM 4.0578 -173.8834 41° Northeast  Level Estimated
09:23AM 4.1587 -173.7968 41° Northeast  Level Estimated
09:24AM 4.2596 -173.7101 41° Northeast  Level Estimated
09:25AM 4.3605 -173.6235 41° Northeast  Level Estimated
09:26AM 4.4614 -173.5368 41° Northeast  Level Estimated
09:27AM 4.5622 -173.4501 41° Northeast  Level Estimated
09:28AM 4.6631 -173.3634 41° Northeast  Level Estimated
09:29AM 4.7639 -173.2767 41° Northeast  Level Estimated
09:30AM 4.8648 -173.1899 41° Northeast  Level Estimated
09:31AM 4.9656 -173.1031 41° Northeast  Level Estimated
09:32AM 5.0664 -173.0163 41° Northeast  Level Estimated
09:33AM 5.1672 -172.9294 41° Northeast  Level Estimated
09:34AM 5.2680 -172.8425 41° Northeast  Level Estimated
09:35AM 5.3688 -172.7556 41° Northeast  Level Estimated
09:36AM 5.4696 -172.6687 41° Northeast  Level Estimated
09:37AM 5.5703 -172.5817 41° Northeast  Level Estimated
09:38AM 5.6711 -172.4947 41° Northeast  Level Estimated
09:39AM 5.7718 -172.4077 41° Northeast  Level Estimated
09:40AM 5.8725 -172.3206 41° Northeast  Level Estimated
09:41AM 5.9732 -172.2335 41° Northeast  Level Estimated
09:42AM 6.0739 -172.1464 41° Northeast  Level Estimated
09:43AM 6.1746 -172.0592 41° Northeast  Level Estimated
09:44AM 6.2752 -171.9720 41° Northeast  Level Estimated
09:45AM 6.3759 -171.8848 41° Northeast  Level Estimated
09:46AM 6.4765 -171.7976 41° Northeast  Level Estimated
09:47AM 6.5771 -171.7103 41° Northeast  Level Estimated
09:48AM 6.6777 -171.6230 41° Northeast  Level Estimated
09:49AM 6.7783 -171.5356 41° Northeast  Level Estimated
09:50AM 6.8789 -171.4482 41° Northeast  Level Estimated
09:51AM 6.9794 -171.3607 41° Northeast  Level Estimated
09:52AM 7.0800 -171.2733 41° Northeast  Level Estimated
09:53AM 7.1805 -171.1858 41° Northeast  Level Estimated
09:54AM 7.2810 -171.0982 41° Northeast  Level Estimated
09:55AM 7.3815 -171.0106 41° Northeast  Level Estimated
09:56AM 7.4820 -170.9230 41° Northeast  Level Estimated
09:57AM 7.5824 -170.8353 41° Northeast  Level Estimated
09:58AM 7.6828 -170.7476 41° Northeast  Level Estimated
09:59AM 7.7833 -170.6599 41° Northeast  Level Estimated
10:00AM 7.8837 -170.5721 41° Northeast  Level Estimated
10:01AM 7.9840 -170.4842 41° Northeast  Level Estimated
10:02AM 8.0844 -170.3964 41° Northeast  Level Estimated
10:03AM 8.1847 -170.3084 41° Northeast  Level Estimated
10:04AM 8.2851 -170.2205 41° Northeast  Level Estimated
10:05AM 8.3854 -170.1325 41° Northeast  Level Estimated
10:06AM 8.4857 -170.0444 41° Northeast  Level Estimated
10:07AM 8.5859 -169.9563 41° Northeast  Level Estimated
10:08AM 8.6862 -169.8681 41° Northeast  Level Estimated
10:09AM 8.7864 -169.7800 41° Northeast  Level Estimated
10:10AM 8.8866 -169.6917 41° Northeast  Level Estimated
10:11AM 8.9868 -169.6034 41° Northeast  Level Estimated
10:12AM 9.0870 -169.5151 41° Northeast  Level Estimated
10:13AM 9.1871 -169.4267 41° Northeast  Level Estimated
10:14AM 9.2872 -169.3382 41° Northeast  Level Estimated
10:15AM 9.3874 -169.2498 41° Northeast  Level Estimated
10:16AM 9.4874 -169.1612 41° Northeast  Level Estimated
10:17AM 9.5875 -169.0726 41° Northeast  Level Estimated
10:18AM 9.6875 -168.9840 41° Northeast  Level Estimated
10:19AM 9.7875 -168.8953 41° Northeast  Level Estimated
10:20AM 9.8875 -168.8065 41° Northeast  Level Estimated
10:21AM 9.9875 -168.7177 41° Northeast  Level Estimated
10:22AM 10.0874 -168.6288 41° Northeast  Level Estimated
10:23AM 10.1873 -168.5399 41° Northeast  Level Estimated
10:24AM 10.2872 -168.4509 41° Northeast  Level Estimated
10:25AM 10.3871 -168.3619 41° Northeast  Level Estimated
10:26AM 10.4869 -168.2728 41° Northeast  Level Estimated
10:27AM 10.5868 -168.1837 41° Northeast  Level Estimated
10:28AM 10.6866 -168.0945 41° Northeast  Level Estimated
10:29AM 10.7863 -168.0052 41° Northeast  Level Estimated
10:30AM 10.8861 -167.9159 41° Northeast  Level Estimated
10:31AM 10.9858 -167.8265 41° Northeast  Level Estimated
10:32AM 11.0855 -167.7371 41° Northeast  Level Estimated
10:33AM 11.1851 -167.6476 41° Northeast  Level Estimated
10:34AM 11.2848 -167.5580 41° Northeast  Level Estimated
10:35AM 11.3844 -167.4684 41° Northeast  Level Estimated
10:36AM 11.4840 -167.3787 41° Northeast  Level Estimated
10:37AM 11.5835 -167.2890 41° Northeast  Level Estimated
10:38AM 11.6831 -167.1991 41° Northeast  Level Estimated
10:39AM 11.7826 -167.1093 41° Northeast  Level Estimated
10:40AM 11.8820 -167.0193 41° Northeast  Level Estimated
10:41AM 11.9815 -166.9293 42° Northeast  Level Estimated
10:42AM 12.0809 -166.8392 42° Northeast  Level Estimated
10:43AM 12.1803 -166.7491 42° Northeast  Level Estimated
10:44AM 12.2796 -166.6589 42° Northeast  Level Estimated
10:45AM 12.3790 -166.5686 42° Northeast  Level Estimated
10:46AM 12.4783 -166.4782 42° Northeast  Level Estimated
10:47AM 12.5775 -166.3878 42° Northeast  Level Estimated
10:48AM 12.6768 -166.2973 42° Northeast  Level Estimated
10:49AM 12.7760 -166.2068 42° Northeast  Level Estimated
10:50AM 12.8752 -166.1161 42° Northeast  Level Estimated
10:51AM 12.9743 -166.0254 42° Northeast  Level Estimated
10:52AM 13.0734 -165.9347 42° Northeast  Level Estimated
10:53AM 13.1725 -165.8438 42° Northeast  Level Estimated
10:54AM 13.2716 -165.7529 42° Northeast  Level Estimated
10:55AM 13.3706 -165.6619 42° Northeast  Level Estimated
10:56AM 13.4696 -165.5708 42° Northeast  Level Estimated
10:57AM 13.5685 -165.4797 42° Northeast  Level Estimated
10:58AM 13.6674 -165.3885 42° Northeast  Level Estimated
10:59AM 13.7663 -165.2972 42° Northeast  Level Estimated
11:00AM 13.8652 -165.2058 42° Northeast  Level Estimated
11:01AM 13.9640 -165.1144 42° Northeast  Level Estimated
11:02AM 14.0628 -165.0228 42° Northeast  Level Estimated
11:03AM 14.1615 -164.9312 42° Northeast  Level Estimated
11:04AM 14.2602 -164.8395 42° Northeast  Level Estimated
11:05AM 14.3589 -164.7478 42° Northeast  Level Estimated
11:06AM 14.4576 -164.6559 42° Northeast  Level Estimated
11:07AM 14.5562 -164.5640 42° Northeast  Level Estimated
11:08AM 14.6547 -164.4720 42° Northeast  Level Estimated
11:09AM 14.7533 -164.3799 42° Northeast  Level Estimated
11:10AM 14.8518 -164.2877 42° Northeast  Level Estimated
11:11AM 14.9502 -164.1954 42° Northeast  Level Estimated
11:12AM 15.0487 -164.1031 42° Northeast  Level Estimated
11:13AM 15.1471 -164.0106 42° Northeast  Level Estimated
11:14AM 15.2454 -163.9181 42° Northeast  Level Estimated
11:15AM 15.3437 -163.8255 42° Northeast  Level Estimated
11:16AM 15.4420 -163.7328 42° Northeast  Level Estimated
11:17AM 15.5402 -163.6400 42° Northeast  Level Estimated
11:18AM 15.6384 -163.5472 42° Northeast  Level Estimated
11:19AM 15.7366 -163.4542 42° Northeast  Level Estimated
11:20AM 15.8347 -163.3611 42° Northeast  Level Estimated
11:21AM 15.9328 -163.2680 42° Northeast  Level Estimated
11:22AM 16.0308 -163.1748 42° Northeast  Level Estimated
11:23AM 16.1288 -163.0815 42° Northeast  Level Estimated
11:24AM 16.2268 -162.9880 42° Northeast  Level Estimated
11:25AM 16.3247 -162.8945 42° Northeast  Level Estimated
11:26AM 16.4226 -162.8009 43° Northeast  Level Estimated
11:27AM 16.5204 -162.7072 43° Northeast  Level Estimated
11:28AM 16.6182 -162.6134 43° Northeast  Level Estimated
11:29AM 16.7160 -162.5195 43° Northeast  Level Estimated
11:30AM 16.8137 -162.4256 43° Northeast  Level Estimated
11:31AM 16.9114 -162.3315 43° Northeast  Level Estimated
11:32AM 17.0090 -162.2373 43° Northeast  Level Estimated
11:33AM 17.1066 -162.1430 43° Northeast  Level Estimated
11:34AM 17.2041 -162.0487 43° Northeast  Level Estimated
11:35AM 17.3016 -161.9542 43° Northeast  Level Estimated
11:36AM 17.3990 -161.8596 43° Northeast  Level Estimated
11:37AM 17.4964 -161.7649 43° Northeast  Level Estimated
11:38AM 17.5938 -161.6702 43° Northeast  Level Estimated
11:39AM 17.6911 -161.5753 43° Northeast  Level Estimated
11:40AM 17.7884 -161.4803 43° Northeast  Level Estimated
11:41AM 17.8856 -161.3852 43° Northeast  Level Estimated
11:42AM 17.9828 -161.2900 43° Northeast  Level Estimated
11:43AM 18.0799 -161.1947 43° Northeast  Level Estimated
11:44AM 18.1770 -161.0993 43° Northeast  Level Estimated
11:45AM 18.2740 -161.0038 43° Northeast  Level Estimated
11:46AM 18.3710 -160.9082 43° Northeast  Level Estimated
11:47AM 18.4679 -160.8125 43° Northeast  Level Estimated
11:48AM 18.5648 -160.7167 43° Northeast  Level Estimated
11:49AM 18.6617 -160.6207 43° Northeast  Level Estimated
11:50AM 18.7585 -160.5247 43° Northeast  Level Estimated
11:51AM 18.8552 -160.4285 43° Northeast  Level Estimated
11:52AM 18.9519 -160.3322 43° Northeast  Level Estimated
11:53AM 19.0486 -160.2359 43° Northeast  Level Estimated
11:54AM 19.1452 -160.1394 43° Northeast  Level Estimated
11:55AM 19.2417 -160.0428 43° Northeast  Level Estimated
11:56AM 19.3382 -159.9460 43° Northeast  Level Estimated
11:57AM 19.4346 -159.8492 43° Northeast  Level Estimated
11:58AM 19.5310 -159.7523 43° Northeast  Level Estimated
11:59AM 19.6274 -159.6552 43° Northeast  Level Estimated
12:00PM 19.7237 -159.5580 44° Northeast  Level Estimated
12:00PM 19.2940 -159.9270 44° Northeast 463 533 39,000  Level FlightAware
12:01PM 19.8199 -159.4607 44° Northeast  Level Estimated
12:01PM 19.3730 -159.8450 44° Northeast 463 533 39,000  Level FlightAware
12:02PM 19.4530 -159.7660 43° Northeast 466 536 39,000  Level FlightAware
12:02PM 19.5090 -159.7090 44° Northeast 465 535 39,000  Level FlightAware
12:03PM 19.5610 -159.6550 44° Northeast 465 535 39,000  Level FlightAware
12:04PM 19.6140 -159.6010 44° Northeast 465 535 39,000  Level FlightAware
12:04PM 19.6660 -159.5470 44° Northeast 465 535 39,000  Level FlightAware
12:05PM 19.7320 -159.4800 44° Northeast 465 535 39,000  Level FlightAware
12:06PM 19.7850 -159.4260 44° Northeast 465 535 39,000  Level FlightAware
12:07PM 19.8370 -159.3720 44° Northeast 465 535 39,000 -4,860 Level FlightAware
12:08PM 20.0250 -159.1820 44° Northeast 472 543 28,900 -5,700 Descending FlightAware
12:09PM 20.0970 -159.1090 44° Northeast 460 529 27,200 -3,360 Descending FlightAware
12:09PM 20.1700 -159.0340 44° Northeast 453 521 24,200 -3,000 Descending FlightAware
12:10PM 20.2120 -158.9910 44° Northeast 443 510 23,200 -1,860 Descending FlightAware
12:11PM 20.2840 -158.9160 44° Northeast 425 489 21,600 -1,320 Descending FlightAware
12:11PM 20.3440 -158.8550 44° Northeast 423 487 21,300 -1,980 Descending FlightAware
12:12PM 20.4030 -158.7940 44° Northeast 417 480 18,800 -1,920 Descending FlightAware
12:13PM 20.4460 -158.7490 44° Northeast 417 480 18,800 -1,200 Level FlightAware
12:14PM 20.5120 -158.6810 44° Northeast 405 466 17,200 -1,140 Descending FlightAware
12:14PM 20.5580 -158.6340 44° Northeast 405 466 17,200 -2,520 Level FlightAware
12:15PM 20.6210 -158.5670 45° Northeast 382 440 13,700 -3,480 Descending FlightAware
12:16PM 20.6790 -158.5070 44° Northeast 373 429 12,000 -1,620 Descending FlightAware
12:16PM 20.7240 -158.4610 44° Northeast 372 428 11,600 -1,320 Descending FlightAware
12:17PM 20.7820 -158.4020 44° Northeast 342 394 10,200 -1,140 Descending FlightAware
12:18PM 20.8240 -158.3630 41° Northeast 309 356 9,900 -360 Descending FlightAware
12:18PM 20.8570 -158.3330 40° Northeast 299 344 9,800 -900 Descending FlightAware
12:19PM 20.8780 -158.3130 42° Northeast 281 323 9,100 -1,620 Descending FlightAware
12:19PM 20.9160 -158.2780 41° Northeast 278 320 8,200 -1,440 Descending FlightAware
12:20PM 20.9470 -158.2580 31° Northeast 276 318 7,600 -1,320 Descending FlightAware
12:20PM 20.9720 -158.2420 31° Northeast 274 315 7,100 -1,200 Descending FlightAware
12:23PM 21.2032 -158.0280 41° Northeast  Level FlightAware Approximate
12:24PM 21.3037 -157.9347 41° Northeast  Level FlightAware Approximate
12:25PM 21.3083 -157.9304 43° Northeast  Level FlightAware Approximate
12:26PM 21.3187 -157.9224 43° Northeast  Level Estimated
12:27PM 21.3187 -157.9224 43° Northeast  Level Estimated
12:28PM 21.3187 -157.9224 43° Northeast  Level Estimated
12:29PM 21.3187 -157.9224 43° Northeast  Level Estimated
12:30PM 21.3187 -157.9224 43° Northeast  Level Estimated
12:31PM 21.3187 -157.9224 43° Northeast  Level Estimated
12:32PM 21.3187 -157.9224 43° Northeast  Level Estimated
12:33PM 21.3187 -157.9224 43° Northeast  Level Estimated
12:34PM 21.3187 -157.9224 43° Northeast  Level Estimated
12:35PM 21.3187 -157.9224 43° Northeast  Level Estimated
12:36PM 21.3187 -157.9224 43° Northeast  Level Estimated
12:37PM 21.3187 -157.9224 43° Northeast  Level Estimated
12:38PM 21.3187 -157.9224 43° Northeast  Level Estimated
12:39PM 21.3187 -157.9224 43° Northeast  Level Estimated